sensor_id;sensor_type;location;lat;lon;timestamp;P1;durP1;ratioP1;P2;durP2;ratioP2
33501;SDS011;22396;51.070;4.974;2023-12-14T07:05:10;23.30;;;8.13;;
33501;SDS011;22396;51.070;4.974;2023-12-14T07:07:35;22.52;;;8.50;;
33501;SDS011;22396;51.070;4.974;2023-12-14T07:10:01;19.58;;;7.88;;
33501;SDS011;22396;51.070;4.974;2023-12-14T07:12:26;23.52;;;7.50;;
33501;SDS011;22396;51.070;4.974;2023-12-14T07:14:52;20.60;;;8.98;;
33501;SDS011;22396;51.070;4.974;2023-12-14T07:17:17;19.85;;;7.35;;
33501;SDS011;22396;51.070;4.974;2023-12-14T07:19:42;14.87;;;6.93;;
33501;SDS011;22396;51.070;4.974;2023-12-14T07:22:07;21.17;;;8.43;;
33501;SDS011;22396;51.070;4.974;2023-12-14T07:24:33;24.50;;;8.63;;
33501;SDS011;22396;51.070;4.974;2023-12-14T07:26:58;17.50;;;7.35;;
33501;SDS011;22396;51.070;4.974;2023-12-14T07:29:23;20.23;;;8.33;;
33501;SDS011;22396;51.070;4.974;2023-12-14T07:31:48;19.15;;;8.65;;
33501;SDS011;22396;51.070;4.974;2023-12-14T07:34:14;18.33;;;6.83;;
33501;SDS011;22396;51.070;4.974;2023-12-14T07:36:39;21.70;;;7.53;;
33501;SDS011;22396;51.070;4.974;2023-12-14T07:39:04;16.20;;;7.57;;
33501;SDS011;22396;51.070;4.974;2023-12-14T07:41:31;20.87;;;8.67;;
33501;SDS011;22396;51.070;4.974;2023-12-14T07:43:57;22.13;;;7.63;;
33501;SDS011;22396;51.070;4.974;2023-12-14T07:46:23;21.27;;;7.23;;
33501;SDS011;22396;51.070;4.974;2023-12-14T07:48:48;18.30;;;8.10;;
33501;SDS011;22396;51.070;4.974;2023-12-14T07:51:14;22.25;;;8.00;;
33501;SDS011;22396;51.070;4.974;2023-12-14T07:53:39;19.38;;;7.47;;
33501;SDS011;22396;51.070;4.974;2023-12-14T07:56:06;14.82;;;7.28;;
33501;SDS011;22396;51.070;4.974;2023-12-14T07:58:31;19.25;;;7.60;;
33501;SDS011;22396;51.070;4.974;2023-12-14T08:00:56;15.27;;;6.85;;
33501;SDS011;22396;51.070;4.974;2023-12-14T08:03:22;18.13;;;7.32;;
33501;SDS011;22396;51.070;4.974;2023-12-14T08:05:47;15.07;;;6.38;;
33501;SDS011;22396;51.070;4.974;2023-12-14T08:08:12;15.30;;;7.07;;
33501;SDS011;22396;51.070;4.974;2023-12-14T08:10:37;18.02;;;7.20;;
33501;SDS011;22396;51.070;4.974;2023-12-14T08:13:02;19.13;;;6.97;;
33501;SDS011;22396;51.070;4.974;2023-12-14T08:15:28;20.80;;;7.93;;
33501;SDS011;22396;51.070;4.974;2023-12-14T08:17:53;15.73;;;7.57;;
33501;SDS011;22396;51.070;4.974;2023-12-14T08:20:19;18.73;;;7.63;;
33501;SDS011;22396;51.070;4.974;2023-12-14T08:22:44;24.63;;;10.83;;
33501;SDS011;22396;51.070;4.974;2023-12-14T08:25:13;15.60;;;7.30;;
33501;SDS011;22396;51.070;4.974;2023-12-14T08:27:39;19.33;;;7.68;;
33501;SDS011;22396;51.070;4.974;2023-12-14T08:30:05;18.03;;;7.57;;
33501;SDS011;22396;51.070;4.974;2023-12-14T08:32:30;26.80;;;10.37;;
33501;SDS011;22396;51.070;4.974;2023-12-14T08:34:55;20.97;;;9.17;;
33501;SDS011;22396;51.070;4.974;2023-12-14T08:37:21;19.00;;;7.63;;
33501;SDS011;22396;51.070;4.974;2023-12-14T08:39:46;23.38;;;8.95;;
33501;SDS011;22396;51.070;4.974;2023-12-14T08:42:11;21.80;;;8.60;;
33501;SDS011;22396;51.070;4.974;2023-12-14T08:44:38;17.58;;;7.32;;
33501;SDS011;22396;51.070;4.974;2023-12-14T08:47:03;16.15;;;7.07;;
33501;SDS011;22396;51.070;4.974;2023-12-14T08:49:29;16.00;;;6.63;;
33501;SDS011;22396;51.070;4.974;2023-12-14T08:51:54;17.20;;;7.27;;
33501;SDS011;22396;51.070;4.974;2023-12-14T08:54:20;20.92;;;7.60;;
33501;SDS011;22396;51.070;4.974;2023-12-14T08:56:45;14.33;;;6.37;;
33501;SDS011;22396;51.070;4.974;2023-12-14T08:59:10;15.20;;;6.32;;
33501;SDS011;22396;51.070;4.974;2023-12-14T09:01:35;16.93;;;6.47;;
33501;SDS011;22396;51.070;4.974;2023-12-14T09:04:00;16.85;;;6.72;;
33501;SDS011;22396;51.070;4.974;2023-12-14T09:06:26;19.53;;;6.73;;
33501;SDS011;22396;51.070;4.974;2023-12-14T09:08:51;20.55;;;7.70;;
33501;SDS011;22396;51.070;4.974;2023-12-14T09:11:16;19.63;;;7.53;;
33501;SDS011;22396;51.070;4.974;2023-12-14T09:13:42;20.93;;;8.70;;
33501;SDS011;22396;51.070;4.974;2023-12-14T09:16:07;35.63;;;15.97;;
33501;SDS011;22396;51.070;4.974;2023-12-14T09:18:32;23.43;;;10.20;;
33501;SDS011;22396;51.070;4.974;2023-12-14T09:20:58;17.23;;;7.70;;
33501;SDS011;22396;51.070;4.974;2023-12-14T09:23:23;16.73;;;7.27;;
33501;SDS011;22396;51.070;4.974;2023-12-14T09:25:48;21.07;;;7.37;;
33501;SDS011;22396;51.070;4.974;2023-12-14T09:28:14;19.90;;;8.07;;
33501;SDS011;22396;51.070;4.974;2023-12-14T09:30:40;19.80;;;7.63;;
33501;SDS011;22396;51.070;4.974;2023-12-14T09:33:05;17.03;;;7.33;;
33501;SDS011;22396;51.070;4.974;2023-12-14T09:35:33;23.23;;;9.13;;
33501;SDS011;22396;51.070;4.974;2023-12-14T09:37:58;24.47;;;8.40;;
33501;SDS011;22396;51.070;4.974;2023-12-14T09:40:23;19.00;;;7.23;;
33501;SDS011;22396;51.070;4.974;2023-12-14T09:42:49;24.37;;;8.07;;
33501;SDS011;22396;51.070;4.974;2023-12-14T09:45:15;20.95;;;8.20;;
33501;SDS011;22396;51.070;4.974;2023-12-14T09:47:41;15.00;;;7.33;;
33501;SDS011;22396;51.070;4.974;2023-12-14T09:50:06;24.92;;;7.88;;
33501;SDS011;22396;51.070;4.974;2023-12-14T09:52:32;14.50;;;6.07;;
33501;SDS011;22396;51.070;4.974;2023-12-14T09:54:58;18.57;;;7.63;;
33501;SDS011;22396;51.070;4.974;2023-12-14T09:57:24;17.17;;;7.27;;
33501;SDS011;22396;51.070;4.974;2023-12-14T09:59:53;18.20;;;7.15;;
33501;SDS011;22396;51.070;4.974;2023-12-14T10:02:19;23.17;;;7.23;;
33501;SDS011;22396;51.070;4.974;2023-12-14T10:04:45;17.37;;;7.07;;
33501;SDS011;22396;51.070;4.974;2023-12-14T10:07:10;14.18;;;6.40;;
33501;SDS011;22396;51.070;4.974;2023-12-14T10:09:36;13.30;;;5.88;;
33501;SDS011;22396;51.070;4.974;2023-12-14T10:12:03;19.95;;;8.95;;
33501;SDS011;22396;51.070;4.974;2023-12-14T10:14:29;17.60;;;7.17;;
33501;SDS011;22396;51.070;4.974;2023-12-14T10:16:54;13.90;;;7.18;;
33501;SDS011;22396;51.070;4.974;2023-12-14T10:19:20;11.52;;;6.00;;
33501;SDS011;22396;51.070;4.974;2023-12-14T10:21:46;13.60;;;5.43;;
33501;SDS011;22396;51.070;4.974;2023-12-14T10:24:12;12.30;;;4.93;;
33501;SDS011;22396;51.070;4.974;2023-12-14T10:26:37;14.87;;;5.03;;
33501;SDS011;22396;51.070;4.974;2023-12-14T10:29:02;11.67;;;4.83;;
33501;SDS011;22396;51.070;4.974;2023-12-14T10:31:30;10.20;;;5.17;;
33501;SDS011;22396;51.070;4.974;2023-12-14T10:33:55;11.45;;;5.22;;
33501;SDS011;22396;51.070;4.974;2023-12-14T10:36:21;18.48;;;6.57;;
33501;SDS011;22396;51.070;4.974;2023-12-14T10:38:49;13.13;;;5.37;;
33501;SDS011;22396;51.070;4.974;2023-12-14T10:41:16;12.37;;;5.03;;
33501;SDS011;22396;51.070;4.974;2023-12-14T10:43:43;14.63;;;4.90;;
33501;SDS011;22396;51.070;4.974;2023-12-14T10:46:09;8.60;;;4.20;;
33501;SDS011;22396;51.070;4.974;2023-12-14T10:48:37;11.53;;;4.73;;
33501;SDS011;22396;51.070;4.974;2023-12-14T10:51:06;12.60;;;4.75;;
33501;SDS011;22396;51.070;4.974;2023-12-14T10:53:33;12.95;;;5.10;;
33501;SDS011;22396;51.070;4.974;2023-12-14T10:55:59;11.75;;;4.78;;
33501;SDS011;22396;51.070;4.974;2023-12-14T10:58:25;13.18;;;4.88;;
33501;SDS011;22396;51.070;4.974;2023-12-14T11:01:02;14.70;;;5.00;;
33501;SDS011;22396;51.070;4.974;2023-12-14T11:03:32;10.87;;;4.70;;
33501;SDS011;22396;51.070;4.974;2023-12-14T11:05:59;12.97;;;4.80;;
33501;SDS011;22396;51.070;4.974;2023-12-14T11:08:25;12.57;;;5.40;;
33501;SDS011;22396;51.070;4.974;2023-12-14T11:10:54;12.10;;;5.10;;
33501;SDS011;22396;51.070;4.974;2023-12-14T11:13:22;9.43;;;4.20;;
33501;SDS011;22396;51.070;4.974;2023-12-14T11:15:48;12.07;;;5.07;;
33501;SDS011;22396;51.070;4.974;2023-12-14T11:23:13;14.33;;;5.83;;
33501;SDS011;22396;51.070;4.974;2023-12-14T11:25:41;10.13;;;4.15;;
33501;SDS011;22396;51.070;4.974;2023-12-14T11:28:07;12.20;;;5.07;;
33501;SDS011;22396;51.070;4.974;2023-12-14T11:30:33;11.30;;;4.10;;
33501;SDS011;22396;51.070;4.974;2023-12-14T11:32:58;8.63;;;3.97;;
33501;SDS011;22396;51.070;4.974;2023-12-14T11:35:24;16.25;;;5.72;;
33501;SDS011;22396;51.070;4.974;2023-12-14T11:37:49;18.73;;;6.10;;
33501;SDS011;22396;51.070;4.974;2023-12-14T11:40:15;17.37;;;4.67;;
33501;SDS011;22396;51.070;4.974;2023-12-14T11:42:41;13.35;;;5.85;;
33501;SDS011;22396;51.070;4.974;2023-12-14T11:45:07;14.80;;;5.30;;
33501;SDS011;22396;51.070;4.974;2023-12-14T11:47:32;16.35;;;5.20;;
33501;SDS011;22396;51.070;4.974;2023-12-14T11:49:57;14.18;;;5.55;;
33501;SDS011;22396;51.070;4.974;2023-12-14T11:52:22;13.50;;;5.55;;
33501;SDS011;22396;51.070;4.974;2023-12-14T11:54:48;13.77;;;5.22;;
33501;SDS011;22396;51.070;4.974;2023-12-14T11:57:13;11.53;;;5.30;;
33501;SDS011;22396;51.070;4.974;2023-12-14T11:59:38;13.60;;;5.20;;
33501;SDS011;22396;51.070;4.974;2023-12-14T12:02:03;17.63;;;4.93;;
33501;SDS011;22396;51.070;4.974;2023-12-14T12:04:29;13.30;;;5.25;;
33501;SDS011;22396;51.070;4.974;2023-12-14T12:07:04;13.70;;;5.70;;
33501;SDS011;22396;51.070;4.974;2023-12-14T12:12:04;10.43;;;4.80;;
33501;SDS011;22396;51.070;4.974;2023-12-14T12:14:30;14.93;;;5.83;;
33501;SDS011;22396;51.070;4.974;2023-12-14T12:16:55;12.63;;;4.93;;
33501;SDS011;22396;51.070;4.974;2023-12-14T12:19:20;18.55;;;5.95;;
33501;SDS011;22396;51.070;4.974;2023-12-14T12:21:45;12.43;;;5.20;;
33501;SDS011;22396;51.070;4.974;2023-12-14T12:24:11;14.55;;;4.85;;
33501;SDS011;22396;51.070;4.974;2023-12-14T12:26:36;9.27;;;5.00;;
33501;SDS011;22396;51.070;4.974;2023-12-14T12:29:01;11.20;;;4.57;;
33501;SDS011;22396;51.070;4.974;2023-12-14T12:31:28;11.45;;;5.05;;
33501;SDS011;22396;51.070;4.974;2023-12-14T12:33:53;10.75;;;4.53;;
33501;SDS011;22396;51.070;4.974;2023-12-14T12:36:19;10.52;;;3.92;;
33501;SDS011;22396;51.070;4.974;2023-12-14T12:38:45;10.87;;;4.93;;
33501;SDS011;22396;51.070;4.974;2023-12-14T12:41:10;11.05;;;4.88;;
33501;SDS011;22396;51.070;4.974;2023-12-14T12:43:36;16.17;;;5.43;;
33501;SDS011;22396;51.070;4.974;2023-12-14T12:46:01;12.38;;;5.40;;
33501;SDS011;22396;51.070;4.974;2023-12-14T12:48:27;11.57;;;4.82;;
33501;SDS011;22396;51.070;4.974;2023-12-14T12:50:52;9.35;;;4.38;;
33501;SDS011;22396;51.070;4.974;2023-12-14T12:53:17;11.68;;;5.00;;
33501;SDS011;22396;51.070;4.974;2023-12-14T12:55:43;11.25;;;5.18;;
33501;SDS011;22396;51.070;4.974;2023-12-14T12:58:09;9.27;;;4.32;;
33501;SDS011;22396;51.070;4.974;2023-12-14T13:00:34;17.60;;;5.90;;
33501;SDS011;22396;51.070;4.974;2023-12-14T13:03:01;12.30;;;5.00;;
33501;SDS011;22396;51.070;4.974;2023-12-14T13:05:27;14.33;;;4.70;;
33501;SDS011;22396;51.070;4.974;2023-12-14T13:07:52;13.68;;;5.95;;
33501;SDS011;22396;51.070;4.974;2023-12-14T13:10:19;11.83;;;4.70;;
33501;SDS011;22396;51.070;4.974;2023-12-14T13:12:47;16.42;;;4.97;;
33501;SDS011;22396;51.070;4.974;2023-12-14T13:15:12;12.68;;;4.55;;
33501;SDS011;22396;51.070;4.974;2023-12-14T13:17:38;13.77;;;5.40;;
33501;SDS011;22396;51.070;4.974;2023-12-14T13:20:03;12.33;;;4.60;;
33501;SDS011;22396;51.070;4.974;2023-12-14T13:22:31;12.63;;;4.78;;
33501;SDS011;22396;51.070;4.974;2023-12-14T13:24:56;10.75;;;4.32;;
33501;SDS011;22396;51.070;4.974;2023-12-14T13:27:21;15.00;;;6.50;;
33501;SDS011;22396;51.070;4.974;2023-12-14T13:29:48;17.90;;;5.40;;
33501;SDS011;22396;51.070;4.974;2023-12-14T13:32:14;14.50;;;5.00;;
33501;SDS011;22396;51.070;4.974;2023-12-14T13:34:39;16.10;;;5.90;;
33501;SDS011;22396;51.070;4.974;2023-12-14T13:37:04;10.73;;;4.93;;
33501;SDS011;22396;51.070;4.974;2023-12-14T13:39:30;12.17;;;5.23;;
33501;SDS011;22396;51.070;4.974;2023-12-14T13:41:56;14.20;;;5.30;;
33501;SDS011;22396;51.070;4.974;2023-12-14T13:44:21;15.23;;;6.43;;
33501;SDS011;22396;51.070;4.974;2023-12-14T13:46:47;9.52;;;4.35;;
33501;SDS011;22396;51.070;4.974;2023-12-14T13:49:12;14.85;;;5.88;;
33501;SDS011;22396;51.070;4.974;2023-12-14T13:51:37;15.15;;;5.13;;
33501;SDS011;22396;51.070;4.974;2023-12-14T13:54:02;12.57;;;4.97;;
33501;SDS011;22396;51.070;4.974;2023-12-14T13:56:28;12.43;;;5.23;;
33501;SDS011;22396;51.070;4.974;2023-12-14T13:58:53;14.35;;;5.55;;
33501;SDS011;22396;51.070;4.974;2023-12-14T14:01:18;11.70;;;5.15;;
33501;SDS011;22396;51.070;4.974;2023-12-14T14:03:44;14.23;;;4.80;;
33501;SDS011;22396;51.070;4.974;2023-12-14T14:06:11;16.33;;;5.50;;
33501;SDS011;22396;51.070;4.974;2023-12-14T14:08:37;14.23;;;5.90;;
33501;SDS011;22396;51.070;4.974;2023-12-14T14:11:02;13.77;;;4.82;;
33501;SDS011;22396;51.070;4.974;2023-12-14T14:13:28;12.27;;;4.63;;
33501;SDS011;22396;51.070;4.974;2023-12-14T14:15:53;10.93;;;4.85;;
33501;SDS011;22396;51.070;4.974;2023-12-14T14:18:18;12.90;;;5.82;;
33501;SDS011;22396;51.070;4.974;2023-12-14T14:20:43;12.93;;;5.75;;
33501;SDS011;22396;51.070;4.974;2023-12-14T14:23:09;18.35;;;5.70;;
33501;SDS011;22396;51.070;4.974;2023-12-14T14:25:34;12.43;;;5.35;;
33501;SDS011;22396;51.070;4.974;2023-12-14T14:28:00;15.30;;;6.20;;
33501;SDS011;22396;51.070;4.974;2023-12-14T14:30:25;11.98;;;5.22;;
33501;SDS011;22396;51.070;4.974;2023-12-14T14:32:51;13.57;;;5.65;;
33501;SDS011;22396;51.070;4.974;2023-12-14T14:35:16;17.30;;;6.40;;
33501;SDS011;22396;51.070;4.974;2023-12-14T14:37:41;12.90;;;5.97;;
33501;SDS011;22396;51.070;4.974;2023-12-14T14:40:10;14.13;;;6.53;;
33501;SDS011;22396;51.070;4.974;2023-12-14T14:42:35;18.67;;;6.43;;
33501;SDS011;22396;51.070;4.974;2023-12-14T14:45:00;13.30;;;5.63;;
33501;SDS011;22396;51.070;4.974;2023-12-14T14:47:26;15.48;;;5.28;;
33501;SDS011;22396;51.070;4.974;2023-12-14T14:49:52;16.50;;;5.13;;
33501;SDS011;22396;51.070;4.974;2023-12-14T14:52:21;10.88;;;5.07;;
33501;SDS011;22396;51.070;4.974;2023-12-14T14:54:47;14.63;;;4.87;;
33501;SDS011;22396;51.070;4.974;2023-12-14T14:57:12;12.95;;;4.72;;
33501;SDS011;22396;51.070;4.974;2023-12-14T14:59:37;13.90;;;4.13;;
33501;SDS011;22396;51.070;4.974;2023-12-14T15:02:02;9.45;;;4.13;;
33501;SDS011;22396;51.070;4.974;2023-12-14T15:04:28;10.60;;;4.07;;
33501;SDS011;22396;51.070;4.974;2023-12-14T15:06:54;12.20;;;4.30;;
33501;SDS011;22396;51.070;4.974;2023-12-14T15:09:19;12.35;;;4.13;;
33501;SDS011;22396;51.070;4.974;2023-12-14T15:11:44;12.70;;;4.03;;
33501;SDS011;22396;51.070;4.974;2023-12-14T15:14:10;12.65;;;4.28;;
33501;SDS011;22396;51.070;4.974;2023-12-14T15:16:35;12.68;;;4.45;;
33501;SDS011;22396;51.070;4.974;2023-12-14T15:19:01;11.25;;;4.78;;
33501;SDS011;22396;51.070;4.974;2023-12-14T15:21:26;12.65;;;3.75;;
33501;SDS011;22396;51.070;4.974;2023-12-14T15:23:51;10.73;;;4.10;;
33501;SDS011;22396;51.070;4.974;2023-12-14T15:26:17;9.10;;;4.10;;
33501;SDS011;22396;51.070;4.974;2023-12-14T15:28:42;13.13;;;4.70;;
33501;SDS011;22396;51.070;4.974;2023-12-14T15:31:08;9.38;;;4.28;;
33501;SDS011;22396;51.070;4.974;2023-12-14T15:33:33;12.10;;;4.10;;
33501;SDS011;22396;51.070;4.974;2023-12-14T15:35:58;10.45;;;3.70;;
33501;SDS011;22396;51.070;4.974;2023-12-14T15:38:25;14.15;;;4.38;;
33501;SDS011;22396;51.070;4.974;2023-12-14T15:40:50;10.17;;;4.03;;
33501;SDS011;22396;51.070;4.974;2023-12-14T15:43:15;10.75;;;4.00;;
33501;SDS011;22396;51.070;4.974;2023-12-14T15:45:41;10.80;;;4.32;;
33501;SDS011;22396;51.070;4.974;2023-12-14T15:48:08;9.65;;;4.68;;
33501;SDS011;22396;51.070;4.974;2023-12-14T15:50:33;12.40;;;4.68;;
33501;SDS011;22396;51.070;4.974;2023-12-14T15:52:58;9.98;;;4.53;;
33501;SDS011;22396;51.070;4.974;2023-12-14T15:55:24;12.40;;;5.00;;
33501;SDS011;22396;51.070;4.974;2023-12-14T15:57:53;15.35;;;5.07;;
33501;SDS011;22396;51.070;4.974;2023-12-14T16:00:18;16.20;;;6.60;;
33501;SDS011;22396;51.070;4.974;2023-12-14T16:02:43;13.50;;;5.13;;
33501;SDS011;22396;51.070;4.974;2023-12-14T16:05:09;13.70;;;5.10;;
33501;SDS011;22396;51.070;4.974;2023-12-14T16:07:34;11.52;;;5.20;;
33501;SDS011;22396;51.070;4.974;2023-12-14T16:09:59;13.18;;;5.72;;
33501;SDS011;22396;51.070;4.974;2023-12-14T16:12:25;10.15;;;5.22;;
33501;SDS011;22396;51.070;4.974;2023-12-14T16:14:50;15.80;;;5.47;;
33501;SDS011;22396;51.070;4.974;2023-12-14T16:17:16;16.50;;;5.67;;
33501;SDS011;22396;51.070;4.974;2023-12-14T16:19:42;17.75;;;5.57;;
33501;SDS011;22396;51.070;4.974;2023-12-14T16:22:07;13.15;;;5.45;;
33501;SDS011;22396;51.070;4.974;2023-12-14T16:24:33;17.13;;;6.57;;
33501;SDS011;22396;51.070;4.974;2023-12-14T16:26:58;16.20;;;6.38;;
33501;SDS011;22396;51.070;4.974;2023-12-14T16:29:24;16.63;;;6.73;;
33501;SDS011;22396;51.070;4.974;2023-12-14T16:31:49;15.73;;;6.47;;
33501;SDS011;22396;51.070;4.974;2023-12-14T16:34:14;19.45;;;7.63;;
33501;SDS011;22396;51.070;4.974;2023-12-14T16:36:40;18.80;;;7.83;;
33501;SDS011;22396;51.070;4.974;2023-12-14T16:39:06;16.77;;;7.33;;
33501;SDS011;22396;51.070;4.974;2023-12-14T16:41:34;17.70;;;6.72;;
33501;SDS011;22396;51.070;4.974;2023-12-14T16:43:59;25.85;;;9.88;;
33501;SDS011;22396;51.070;4.974;2023-12-14T16:46:25;33.42;;;12.73;;
33501;SDS011;22396;51.070;4.974;2023-12-14T16:48:50;38.63;;;15.50;;
33501;SDS011;22396;51.070;4.974;2023-12-14T16:51:18;65.53;;;19.75;;
33501;SDS011;22396;51.070;4.974;2023-12-14T16:53:46;66.68;;;20.88;;
33501;SDS011;22396;51.070;4.974;2023-12-14T16:56:16;39.13;;;18.65;;
33501;SDS011;22396;51.070;4.974;2023-12-14T16:58:41;30.60;;;13.57;;
33501;SDS011;22396;51.070;4.974;2023-12-14T17:01:06;22.02;;;9.77;;
33501;SDS011;22396;51.070;4.974;2023-12-14T17:03:32;26.60;;;9.38;;
33501;SDS011;22396;51.070;4.974;2023-12-14T17:05:57;26.20;;;10.83;;
33501;SDS011;22396;51.070;4.974;2023-12-14T17:08:22;26.33;;;10.03;;
33501;SDS011;22396;51.070;4.974;2023-12-14T17:10:49;21.75;;;8.70;;
33501;SDS011;22396;51.070;4.974;2023-12-14T17:13:14;22.60;;;8.82;;
33501;SDS011;22396;51.070;4.974;2023-12-14T17:15:39;23.25;;;9.60;;
33501;SDS011;22396;51.070;4.974;2023-12-14T17:18:05;26.92;;;10.15;;
33501;SDS011;22396;51.070;4.974;2023-12-14T17:20:32;23.75;;;9.88;;
33501;SDS011;22396;51.070;4.974;2023-12-14T17:22:57;24.70;;;9.88;;
33501;SDS011;22396;51.070;4.974;2023-12-14T17:25:22;24.48;;;9.70;;
33501;SDS011;22396;51.070;4.974;2023-12-14T17:27:47;13.70;;;6.50;;
33501;SDS011;22396;51.070;4.974;2023-12-14T17:30:13;22.13;;;8.02;;
33501;SDS011;22396;51.070;4.974;2023-12-14T17:32:38;16.02;;;7.13;;
33501;SDS011;22396;51.070;4.974;2023-12-14T17:35:03;16.08;;;6.90;;
33501;SDS011;22396;51.070;4.974;2023-12-14T17:37:29;21.87;;;8.97;;
33501;SDS011;22396;51.070;4.974;2023-12-14T17:39:54;18.77;;;7.90;;
33501;SDS011;22396;51.070;4.974;2023-12-14T17:42:19;20.13;;;6.88;;
33501;SDS011;22396;51.070;4.974;2023-12-14T17:44:44;20.70;;;7.50;;
33501;SDS011;22396;51.070;4.974;2023-12-14T17:47:10;18.53;;;8.03;;
33501;SDS011;22396;51.070;4.974;2023-12-14T17:49:35;16.23;;;7.63;;
33501;SDS011;22396;51.070;4.974;2023-12-14T17:52:00;16.58;;;7.60;;
33501;SDS011;22396;51.070;4.974;2023-12-14T17:54:25;17.45;;;7.82;;
33501;SDS011;22396;51.070;4.974;2023-12-14T17:56:51;19.77;;;8.50;;
33501;SDS011;22396;51.070;4.974;2023-12-14T17:59:16;26.20;;;10.35;;
33501;SDS011;22396;51.070;4.974;2023-12-14T18:01:42;21.47;;;9.67;;
33501;SDS011;22396;51.070;4.974;2023-12-14T18:04:07;18.77;;;8.02;;
33501;SDS011;22396;51.070;4.974;2023-12-14T18:06:32;14.40;;;7.32;;
33501;SDS011;22396;51.070;4.974;2023-12-14T18:08:58;19.30;;;7.30;;
33501;SDS011;22396;51.070;4.974;2023-12-14T18:11:23;21.60;;;8.73;;
33501;SDS011;22396;51.070;4.974;2023-12-14T18:13:48;20.92;;;9.98;;
33501;SDS011;22396;51.070;4.974;2023-12-14T18:16:14;18.15;;;7.65;;
33501;SDS011;22396;51.070;4.974;2023-12-14T18:18:39;16.70;;;8.52;;
33501;SDS011;22396;51.070;4.974;2023-12-14T18:21:04;17.70;;;8.10;;
33501;SDS011;22396;51.070;4.974;2023-12-14T18:23:30;19.20;;;8.65;;
33501;SDS011;22396;51.070;4.974;2023-12-14T18:25:55;24.17;;;9.98;;
33501;SDS011;22396;51.070;4.974;2023-12-14T18:28:20;17.67;;;8.35;;
33501;SDS011;22396;51.070;4.974;2023-12-14T18:30:45;26.98;;;8.27;;
33501;SDS011;22396;51.070;4.974;2023-12-14T18:33:11;22.83;;;8.55;;
33501;SDS011;22396;51.070;4.974;2023-12-14T18:35:36;20.42;;;8.27;;
33501;SDS011;22396;51.070;4.974;2023-12-14T18:38:02;25.17;;;8.70;;
33501;SDS011;22396;51.070;4.974;2023-12-14T18:40:27;18.93;;;7.67;;
33501;SDS011;22396;51.070;4.974;2023-12-14T18:42:53;19.23;;;8.70;;
33501;SDS011;22396;51.070;4.974;2023-12-14T18:45:18;26.50;;;10.27;;
33501;SDS011;22396;51.070;4.974;2023-12-14T18:47:44;31.63;;;10.80;;
33501;SDS011;22396;51.070;4.974;2023-12-14T18:50:09;27.10;;;10.03;;
33501;SDS011;22396;51.070;4.974;2023-12-14T18:52:34;18.37;;;8.43;;
33501;SDS011;22396;51.070;4.974;2023-12-14T18:55:00;26.73;;;9.80;;
33501;SDS011;22396;51.070;4.974;2023-12-14T18:57:25;24.40;;;10.17;;
33501;SDS011;22396;51.070;4.974;2023-12-14T18:59:50;25.20;;;9.90;;
33501;SDS011;22396;51.070;4.974;2023-12-14T19:02:15;16.20;;;7.63;;
33501;SDS011;22396;51.070;4.974;2023-12-14T19:04:41;17.63;;;7.53;;
33501;SDS011;22396;51.070;4.974;2023-12-14T19:07:07;18.53;;;6.77;;
33501;SDS011;22396;51.070;4.974;2023-12-14T19:09:32;19.07;;;7.10;;
33501;SDS011;22396;51.070;4.974;2023-12-14T19:11:57;22.40;;;7.07;;
33501;SDS011;22396;51.070;4.974;2023-12-14T19:14:22;20.27;;;7.73;;
33501;SDS011;22396;51.070;4.974;2023-12-14T19:16:47;17.00;;;7.35;;
33501;SDS011;22396;51.070;4.974;2023-12-14T19:19:14;18.75;;;8.02;;
33501;SDS011;22396;51.070;4.974;2023-12-14T19:21:40;16.10;;;7.63;;
33501;SDS011;22396;51.070;4.974;2023-12-14T19:24:06;21.88;;;8.40;;
33501;SDS011;22396;51.070;4.974;2023-12-14T19:26:32;30.58;;;10.02;;
33501;SDS011;22396;51.070;4.974;2023-12-14T19:28:57;21.47;;;8.73;;
33501;SDS011;22396;51.070;4.974;2023-12-14T19:31:22;20.77;;;7.32;;
33501;SDS011;22396;51.070;4.974;2023-12-14T19:33:48;16.37;;;7.97;;
33501;SDS011;22396;51.070;4.974;2023-12-14T19:36:14;19.63;;;7.32;;
33501;SDS011;22396;51.070;4.974;2023-12-14T19:38:43;15.00;;;7.03;;
33501;SDS011;22396;51.070;4.974;2023-12-14T19:41:09;15.50;;;6.63;;
33501;SDS011;22396;51.070;4.974;2023-12-14T19:43:34;11.17;;;5.20;;
33501;SDS011;22396;51.070;4.974;2023-12-14T19:46:00;20.43;;;5.87;;
33501;SDS011;22396;51.070;4.974;2023-12-14T19:48:26;11.33;;;5.10;;
33501;SDS011;22396;51.070;4.974;2023-12-14T19:50:51;14.55;;;4.80;;
33501;SDS011;22396;51.070;4.974;2023-12-14T19:53:16;13.90;;;5.23;;
33501;SDS011;22396;51.070;4.974;2023-12-14T19:55:41;11.77;;;5.23;;
33501;SDS011;22396;51.070;4.974;2023-12-14T19:58:06;11.83;;;6.27;;
33501;SDS011;22396;51.070;4.974;2023-12-14T20:00:32;9.47;;;4.93;;
33501;SDS011;22396;51.070;4.974;2023-12-14T20:02:57;12.30;;;5.37;;
33501;SDS011;22396;51.070;4.974;2023-12-14T20:05:22;10.83;;;4.00;;
33501;SDS011;22396;51.070;4.974;2023-12-14T20:07:48;11.70;;;5.22;;
33501;SDS011;22396;51.070;4.974;2023-12-14T20:10:13;10.53;;;4.83;;
33501;SDS011;22396;51.070;4.974;2023-12-14T20:12:38;10.40;;;4.75;;
33501;SDS011;22396;51.070;4.974;2023-12-14T20:15:04;14.50;;;6.45;;
33501;SDS011;22396;51.070;4.974;2023-12-14T20:17:29;11.15;;;4.65;;
33501;SDS011;22396;51.070;4.974;2023-12-14T20:19:54;11.43;;;4.73;;
33501;SDS011;22396;51.070;4.974;2023-12-14T20:22:20;11.10;;;3.97;;
33501;SDS011;22396;51.070;4.974;2023-12-14T20:24:46;12.60;;;4.75;;
33501;SDS011;22396;51.070;4.974;2023-12-14T20:27:12;11.87;;;4.60;;
33501;SDS011;22396;51.070;4.974;2023-12-14T20:29:38;12.00;;;3.88;;
33501;SDS011;22396;51.070;4.974;2023-12-14T20:32:03;12.23;;;4.55;;
33501;SDS011;22396;51.070;4.974;2023-12-14T20:34:29;13.45;;;4.57;;
33501;SDS011;22396;51.070;4.974;2023-12-14T20:36:54;17.73;;;5.37;;
33501;SDS011;22396;51.070;4.974;2023-12-14T20:39:19;12.83;;;5.53;;
33501;SDS011;22396;51.070;4.974;2023-12-14T20:41:45;16.33;;;5.13;;
33501;SDS011;22396;51.070;4.974;2023-12-14T20:44:10;13.13;;;4.60;;
33501;SDS011;22396;51.070;4.974;2023-12-14T20:46:35;13.13;;;4.85;;
33501;SDS011;22396;51.070;4.974;2023-12-14T20:49:01;17.60;;;6.13;;
33501;SDS011;22396;51.070;4.974;2023-12-14T20:51:26;15.63;;;6.50;;
33501;SDS011;22396;51.070;4.974;2023-12-14T20:53:51;37.63;;;8.33;;
33501;SDS011;22396;51.070;4.974;2023-12-14T20:56:17;11.50;;;4.65;;
33501;SDS011;22396;51.070;4.974;2023-12-14T20:58:43;19.17;;;5.15;;
33501;SDS011;22396;51.070;4.974;2023-12-14T21:01:09;8.37;;;4.70;;
33501;SDS011;22396;51.070;4.974;2023-12-14T21:03:34;18.20;;;5.57;;
33501;SDS011;22396;51.070;4.974;2023-12-14T21:06:03;14.27;;;4.90;;
33501;SDS011;22396;51.070;4.974;2023-12-14T21:08:29;12.18;;;4.45;;
33501;SDS011;22396;51.070;4.974;2023-12-14T21:10:54;21.43;;;5.47;;
33501;SDS011;22396;51.070;4.974;2023-12-14T21:13:19;19.57;;;7.53;;
33501;SDS011;22396;51.070;4.974;2023-12-14T21:15:47;17.53;;;4.97;;
33501;SDS011;22396;51.070;4.974;2023-12-14T21:18:12;12.30;;;4.45;;
33501;SDS011;22396;51.070;4.974;2023-12-14T21:20:38;12.87;;;4.80;;
33501;SDS011;22396;51.070;4.974;2023-12-14T21:23:04;12.73;;;4.23;;
33501;SDS011;22396;51.070;4.974;2023-12-14T21:25:29;12.70;;;4.20;;
33501;SDS011;22396;51.070;4.974;2023-12-14T21:28:03;10.53;;;4.20;;
33501;SDS011;22396;51.070;4.974;2023-12-14T21:30:29;16.53;;;4.43;;
33501;SDS011;22396;51.070;4.974;2023-12-14T21:32:54;7.50;;;4.20;;
33501;SDS011;22396;51.070;4.974;2023-12-14T21:35:19;14.55;;;4.38;;